Time;durP1;ratioP1;P1;durP2;ratioP2;P2;SDS_P1;SDS_P2;PMS_P1;PMS_P2;Temp;Humidity;BMP_temperature;BMP_pressure;BME280_temperature;BME280_humidity;BME280_pressure;Samples;Min_cycle;Max_cycle;Signal;HPM_P1;HPM_P2
2023/09/04 00:00:09;;;;;;;3.75;2.50;;;;;;;;;;1026975;28;20023;-74
2023/09/04 00:00:39;;;;;;;4.38;2.33;;;;;;;;;;1025633;28;20026;-73
2023/09/04 00:01:09;;;;;;;2.53;2.28;;;;;;;;;;1029583;28;20029;-72
2023/09/04 00:01:40;;;;;;;7.28;2.83;;;;;;;;;;1034984;28;20021;-73
2023/09/04 00:02:10;;;;;;;4.53;2.50;;;;;;;;;;1035079;28;20093;-72
2023/09/04 00:02:40;;;;;;;2.78;2.47;;;;;;;;;;1033545;28;20026;-72
2023/09/04 00:03:11;;;;;;;4.03;2.38;;;;;;;;;;1035435;28;20014;-72
2023/09/04 00:03:41;;;;;;;5.05;2.65;;;;;;;;;;1033528;28;20033;-72
2023/09/04 00:04:11;;;;;;;3.30;2.50;;;;;;;;;;1031139;28;20018;-72
2023/09/04 00:04:41;;;;;;;2.60;2.40;;;;;;;;;;1029792;28;20021;-71
2023/09/04 00:05:12;;;;;;;2.95;2.45;;;;;;;;;;1031132;28;20014;-72
2023/09/04 00:05:42;;;;;;;3.05;2.60;;;;;;;;;;1031246;28;20089;-72
2023/09/04 00:06:12;;;;;;;3.35;2.63;;;;;;;;;;1031157;28;20042;-74
2023/09/04 00:06:43;;;;;;;4.18;2.60;;;;;;;;;;1035031;28;20033;-73
2023/09/04 00:07:13;;;;;;;3.00;2.50;;;;;;;;;;1031231;28;20405;-72
2023/09/04 00:07:43;;;;;;;4.50;2.45;;;;;;;;;;1028827;28;20109;-72
2023/09/04 00:08:13;;;;;;;2.88;2.42;;;;;;;;;;1031414;28;20026;-71
2023/09/04 00:08:44;;;;;;;4.97;2.72;;;;;;;;;;1031264;28;20077;-72
2023/09/04 00:09:15;;;;;;;7.07;2.60;;;;;;;;;;1035411;28;20531;-71
2023/09/04 00:09:45;;;;;;;4.95;2.42;;;;;;;;;;1037119;28;20014;-73
2023/09/04 00:10:15;;;;;;;8.02;2.50;;;;;;;;;;1035199;28;20025;-72
2023/09/04 00:10:46;;;;;;;9.85;3.20;;;;;;;;;;1035200;28;20261;-72
2023/09/04 00:11:16;;;;;;;3.75;2.35;;;;;;;;;;1031161;28;20438;-73
2023/09/04 00:11:46;;;;;;;5.47;2.63;;;;;;;;;;1023055;29;20023;-73
2023/09/04 00:12:16;;;;;;;4.28;2.92;;;;;;;;;;1022975;28;20459;-73
2023/09/04 00:12:47;;;;;;;3.65;2.53;;;;;;;;;;1023085;29;20027;-73
2023/09/04 00:13:17;;;;;;;5.50;2.42;;;;;;;;;;1022859;28;20533;-72
2023/09/04 00:13:47;;;;;;;4.03;2.67;;;;;;;;;;1026864;28;20070;-72
2023/09/04 00:14:18;;;;;;;9.00;2.80;;;;;;;;;;1031142;28;20145;-71
2023/09/04 00:14:49;;;;;;;4.13;2.70;;;;;;;;;;1031061;28;20022;-74
2023/09/04 00:15:19;;;;;;;3.20;2.50;;;;;;;;;;1031106;28;20015;-73
2023/09/04 00:15:53;;;;;;;2.83;2.50;;;;;;;;;;1030817;28;20081;-72
2023/09/04 00:16:23;;;;;;;3.72;2.70;;;;;;;;;;1030692;28;20034;-73
2023/09/04 00:16:53;;;;;;;12.35;2.42;;;;;;;;;;1027733;28;20011;-73
2023/09/04 00:17:24;;;;;;;6.47;2.75;;;;;;;;;;1031399;28;20026;-73
2023/09/04 00:17:55;;;;;;;2.60;2.28;;;;;;;;;;1034960;28;20014;-73
2023/09/04 00:18:25;;;;;;;3.15;2.65;;;;;;;;;;1034923;28;20018;-73
2023/09/04 00:18:55;;;;;;;3.53;2.28;;;;;;;;;;1039131;28;20496;-73
2023/09/04 00:19:26;;;;;;;3.30;2.45;;;;;;;;;;1038988;28;20567;-71
2023/09/04 00:19:56;;;;;;;3.25;2.15;;;;;;;;;;1038486;28;20018;-70
2023/09/04 00:20:26;;;;;;;4.15;2.60;;;;;;;;;;1034657;28;20084;-73
2023/09/04 00:20:57;;;;;;;4.07;2.10;;;;;;;;;;1035182;28;20070;-73
2023/09/04 00:21:27;;;;;;;2.80;2.22;;;;;;;;;;1030936;28;20054;-73
2023/09/04 00:21:57;;;;;;;4.78;2.42;;;;;;;;;;1031101;28;20552;-72
2023/09/04 00:22:27;;;;;;;4.22;2.53;;;;;;;;;;1035166;28;20029;-73
2023/09/04 00:22:58;;;;;;;2.92;2.45;;;;;;;;;;1035276;28;20393;-73
2023/09/04 00:23:32;;;;;;;3.15;2.33;;;;;;;;;;1035373;28;20018;-73
2023/09/04 00:24:02;;;;;;;3.47;2.80;;;;;;;;;;1035384;28;20512;-73
2023/09/04 00:24:32;;;;;;;3.05;2.72;;;;;;;;;;1034279;28;20243;-74
2023/09/04 00:25:03;;;;;;;2.53;2.15;;;;;;;;;;1033505;28;21299;-74
2023/09/04 00:25:33;;;;;;;3.40;2.50;;;;;;;;;;1035131;28;20028;-73
2023/09/04 00:26:03;;;;;;;2.78;2.40;;;;;;;;;;1034981;28;20022;-73
2023/09/04 00:26:33;;;;;;;3.72;2.40;;;;;;;;;;1038020;28;20030;-74
2023/09/04 00:27:04;;;;;;;3.05;2.65;;;;;;;;;;1031020;28;20027;-73
2023/09/04 00:27:34;;;;;;;5.95;2.47;;;;;;;;;;1031047;28;20030;-72
2023/09/04 00:28:04;;;;;;;3.08;2.25;;;;;;;;;;1035107;28;20524;-73
2023/09/04 00:28:35;;;;;;;3.72;2.60;;;;;;;;;;1034802;28;20041;-75
2023/09/04 00:29:06;;;;;;;5.13;2.50;;;;;;;;;;1034889;28;20057;-72
2023/09/04 00:29:36;;;;;;;3.00;2.10;;;;;;;;;;1034357;28;20049;-73
2023/09/04 00:30:06;;;;;;;7.97;2.85;;;;;;;;;;1034821;28;20045;-73
2023/09/04 00:30:37;;;;;;;4.32;2.60;;;;;;;;;;1034872;28;20362;-72
2023/09/04 00:31:07;;;;;;;3.65;2.53;;;;;;;;;;1026900;28;20030;-72
2023/09/04 00:31:37;;;;;;;12.75;2.78;;;;;;;;;;1030747;28;20125;-71
2023/09/04 00:32:07;;;;;;;4.40;3.63;;;;;;;;;;1030984;28;20026;-72
2023/09/04 00:32:38;;;;;;;3.35;2.78;;;;;;;;;;1026909;28;20081;-73
2023/09/04 00:33:08;;;;;;;6.10;2.90;;;;;;;;;;1022894;28;20188;-73
2023/09/04 00:33:39;;;;;;;3.10;2.60;;;;;;;;;;1030881;28;20545;-73
2023/09/04 00:34:09;;;;;;;3.10;2.47;;;;;;;;;;1026940;28;20386;-73
2023/09/04 00:34:39;;;;;;;3.88;2.47;;;;;;;;;;1029940;28;20137;-73
2023/09/04 00:35:13;;;;;;;10.80;2.80;;;;;;;;;;1030806;28;20037;-73
2023/09/04 00:35:44;;;;;;;3.53;2.33;;;;;;;;;;1027530;28;20019;-72
2023/09/04 00:36:14;;;;;;;2.50;2.00;;;;;;;;;;1023012;29;20027;-73
2023/09/04 00:36:44;;;;;;;3.15;2.80;;;;;;;;;;1019153;29;20079;-73
2023/09/04 00:37:14;;;;;;;2.53;2.17;;;;;;;;;;1023057;29;20026;-74
2023/09/04 00:37:45;;;;;;;3.10;2.60;;;;;;;;;;1023017;28;20415;-72
2023/09/04 00:38:15;;;;;;;2.85;2.25;;;;;;;;;;1022898;29;20118;-74
2023/09/04 00:38:45;;;;;;;5.53;2.75;;;;;;;;;;1026687;28;20022;-72
2023/09/04 00:39:17;;;;;;;3.05;2.58;;;;;;;;;;1026855;28;20019;-72
2023/09/04 00:39:47;;;;;;;2.92;2.55;;;;;;;;;;1026659;28;20019;-73
2023/09/04 00:40:17;;;;;;;3.28;2.70;;;;;;;;;;1034883;28;20018;-73
2023/09/04 00:40:47;;;;;;;4.57;2.97;;;;;;;;;;1034852;28;20068;-73
2023/09/04 00:41:19;;;;;;;3.17;2.85;;;;;;;;;;1035339;28;20100;-72
2023/09/04 00:41:49;;;;;;;4.30;2.63;;;;;;;;;;1034752;28;20020;-73
2023/09/04 00:42:19;;;;;;;3.67;2.47;;;;;;;;;;1031088;28;20045;-74
2023/09/04 00:42:49;;;;;;;4.50;2.80;;;;;;;;;;1031007;28;20510;-74
2023/09/04 00:43:20;;;;;;;3.92;2.53;;;;;;;;;;1031212;28;20030;-72
2023/09/04 00:43:50;;;;;;;4.13;2.92;;;;;;;;;;1030788;28;20018;-73
2023/09/04 00:44:20;;;;;;;3.67;2.95;;;;;;;;;;1031027;28;20026;-71
2023/09/04 00:44:50;;;;;;;3.05;2.60;;;;;;;;;;1030898;28;20117;-72
2023/09/04 00:45:21;;;;;;;4.55;3.20;;;;;;;;;;1027006;28;20014;-73
2023/09/04 00:45:51;;;;;;;5.53;3.05;;;;;;;;;;1027159;28;20074;-73
2023/09/04 00:46:21;;;;;;;3.75;2.70;;;;;;;;;;1023127;29;20020;-75
2023/09/04 00:46:51;;;;;;;4.38;3.10;;;;;;;;;;1022741;29;20074;-72
2023/09/04 00:47:23;;;;;;;4.10;3.45;;;;;;;;;;1022857;29;20015;-73
2023/09/04 00:47:53;;;;;;;5.20;3.33;;;;;;;;;;1023298;28;20015;-72
2023/09/04 00:48:24;;;;;;;3.97;3.05;;;;;;;;;;1026982;28;20098;-74
2023/09/04 00:48:55;;;;;;;3.47;3.10;;;;;;;;;;1023331;28;20011;-72
2023/09/04 00:49:25;;;;;;;5.20;3.50;;;;;;;;;;1030756;28;20090;-73
2023/09/04 00:49:55;;;;;;;5.30;3.70;;;;;;;;;;1030576;28;20041;-73
2023/09/04 00:50:26;;;;;;;4.63;3.28;;;;;;;;;;1026946;28;20843;-73
2023/09/04 00:50:56;;;;;;;4.30;3.55;;;;;;;;;;1030968;28;20043;-72
2023/09/04 00:51:27;;;;;;;4.65;3.45;;;;;;;;;;1022705;29;20015;-72
2023/09/04 00:51:57;;;;;;;3.88;3.20;;;;;;;;;;1022907;28;20106;-71
2023/09/04 00:52:28;;;;;;;4.25;3.47;;;;;;;;;;1022709;29;20015;-71
2023/09/04 00:52:59;;;;;;;6.28;3.85;;;;;;;;;;1023123;28;20506;-73
2023/09/04 00:53:30;;;;;;;6.45;3.75;;;;;;;;;;1030560;28;20025;-75
2023/09/04 00:54:00;;;;;;;6.50;3.75;;;;;;;;;;1027111;28;20026;-73
2023/09/04 00:54:31;;;;;;;4.45;3.78;;;;;;;;;;1027070;28;20238;-73
2023/09/04 00:55:03;;;;;;;7.32;3.47;;;;;;;;;;1030988;28;20101;-73
2023/09/04 00:55:33;;;;;;;4.53;3.97;;;;;;;;;;1026552;28;20034;-73
2023/09/04 00:56:04;;;;;;;4.22;3.38;;;;;;;;;;1023285;28;20023;-73
2023/09/04 00:56:34;;;;;;;12.35;3.50;;;;;;;;;;1022975;28;20408;-72
2023/09/04 00:57:04;;;;;;;4.95;3.67;;;;;;;;;;1026998;28;20015;-73
2023/09/04 00:57:35;;;;;;;4.57;3.47;;;;;;;;;;1026764;28;20514;-72
2023/09/04 00:58:05;;;;;;;9.75;3.83;;;;;;;;;;1030880;28;20114;-74
2023/09/04 00:58:36;;;;;;;10.15;3.90;;;;;;;;;;1026964;28;20781;-73
2023/09/04 00:59:06;;;;;;;4.32;3.33;;;;;;;;;;1030786;28;20014;-72
2023/09/04 00:59:36;;;;;;;4.28;3.58;;;;;;;;;;1033994;28;20121;-72
2023/09/04 01:00:12;;;;;;;5.03;3.97;;;;;;;;;;1030732;28;20021;-73
2023/09/04 01:00:43;;;;;;;5.22;3.92;;;;;;;;;;1026868;28;20015;-73
2023/09/04 01:01:14;;;;;;;5.53;4.35;;;;;;;;;;1025084;28;20501;-73
2023/09/04 01:01:44;;;;;;;6.28;3.83;;;;;;;;;;1027555;28;20031;-73
2023/09/04 01:02:14;;;;;;;4.15;3.40;;;;;;;;;;1031019;28;20104;-73
2023/09/04 01:02:45;;;;;;;5.82;4.20;;;;;;;;;;1026889;28;20019;-72
2023/09/04 01:03:15;;;;;;;5.60;4.15;;;;;;;;;;1030845;28;20018;-74
2023/09/04 01:03:45;;;;;;;4.30;3.60;;;;;;;;;;1030744;28;20069;-73
2023/09/04 01:04:16;;;;;;;7.32;3.83;;;;;;;;;;1022942;29;20020;-73
2023/09/04 01:04:47;;;;;;;5.53;4.10;;;;;;;;;;1022722;28;20146;-71
2023/09/04 01:05:17;;;;;;;7.38;3.85;;;;;;;;;;1022974;29;20154;-73
2023/09/04 01:05:47;;;;;;;4.78;3.97;;;;;;;;;;1023061;28;20114;-72
2023/09/04 01:06:17;;;;;;;6.85;3.90;;;;;;;;;;1032938;28;20401;-72
2023/09/04 01:06:48;;;;;;;4.45;3.72;;;;;;;;;;1030743;28;20064;-74
2023/09/04 01:07:18;;;;;;;4.70;3.45;;;;;;;;;;1034979;28;20022;-73
2023/09/04 01:07:48;;;;;;;5.07;4.15;;;;;;;;;;1030655;28;20029;-72
2023/09/04 01:08:18;;;;;;;4.93;3.95;;;;;;;;;;1022900;29;20043;-73
2023/09/04 01:08:49;;;;;;;5.35;4.05;;;;;;;;;;1026779;28;20688;-73
2023/09/04 01:09:22;;;;;;;5.20;4.07;;;;;;;;;;1022925;28;20239;-74
2023/09/04 01:09:52;;;;;;;6.47;3.83;;;;;;;;;;1022518;28;20015;-72
2023/09/04 01:10:23;;;;;;;5.00;4.00;;;;;;;;;;1022542;28;20012;-73
2023/09/04 01:10:56;;;;;;;5.05;3.80;;;;;;;;;;1023123;28;20019;-72
2023/09/04 01:11:31;;;;;;;5.82;4.00;;;;;;;;;;1026906;28;20157;-73
2023/09/04 01:12:07;;;;;;;4.32;3.65;;;;;;;;;;1023610;28;20023;-73
2023/09/04 01:12:42;;;;;;;7.38;3.88;;;;;;;;;;1028642;28;20099;-72
2023/09/04 01:13:16;;;;;;;4.55;3.75;;;;;;;;;;1025820;28;20106;-73
2023/09/04 01:13:55;;;;;;;6.05;3.97;;;;;;;;;;1024562;28;20035;-74
2023/09/04 01:14:25;;;;;;;5.30;4.05;;;;;;;;;;1022593;28;20027;-73
2023/09/04 01:14:56;;;;;;;5.10;4.20;;;;;;;;;;1018919;29;20291;-72
2023/09/04 01:15:26;;;;;;;5.95;4.10;;;;;;;;;;1021411;28;20020;-72
2023/09/04 01:15:57;;;;;;;5.32;4.07;;;;;;;;;;1026935;28;20027;-71
2023/09/04 01:16:27;;;;;;;5.43;4.25;;;;;;;;;;1026322;28;20023;-72
2023/09/04 01:16:57;;;;;;;5.65;4.43;;;;;;;;;;1026885;28;20057;-71
2023/09/04 01:17:28;;;;;;;5.25;3.83;;;;;;;;;;1026675;28;20039;-72
2023/09/04 01:17:58;;;;;;;5.32;3.90;;;;;;;;;;1022479;28;20110;-72
2023/09/04 01:18:29;;;;;;;6.63;4.00;;;;;;;;;;1026455;28;20061;-72
2023/09/04 01:18:59;;;;;;;6.93;4.32;;;;;;;;;;1026807;28;20796;-72
2023/09/04 01:19:29;;;;;;;5.82;3.92;;;;;;;;;;1026301;28;20026;-73
2023/09/04 01:20:12;;;;;;;7.32;4.40;;;;;;;;;;1030646;28;20034;-72
2023/09/04 01:20:42;;;;;;;6.13;4.57;;;;;;;;;;1032374;28;20798;-74
2023/09/04 01:21:12;;;;;;;8.07;4.35;;;;;;;;;;1034820;28;20026;-73
2023/09/04 01:21:43;;;;;;;5.20;4.43;;;;;;;;;;1035185;28;20508;-72
2023/09/04 01:22:13;;;;;;;5.00;4.00;;;;;;;;;;1034899;28;20156;-73
2023/09/04 01:22:43;;;;;;;5.50;4.60;;;;;;;;;;1026581;28;20646;-73
2023/09/04 01:23:13;;;;;;;5.97;4.60;;;;;;;;;;1025009;28;20055;-71
2023/09/04 01:23:44;;;;;;;5.20;4.00;;;;;;;;;;1024089;28;20022;-72
2023/09/04 01:24:14;;;;;;;5.45;4.15;;;;;;;;;;1018761;29;20059;-73
2023/09/04 01:24:46;;;;;;;5.93;4.78;;;;;;;;;;1028893;28;20026;-72
2023/09/04 01:25:16;;;;;;;5.97;4.82;;;;;;;;;;1027027;28;20611;-75
2023/09/04 01:25:52;;;;;;;5.45;4.07;;;;;;;;;;1026728;28;20023;-73
2023/09/04 01:26:23;;;;;;;5.78;4.25;;;;;;;;;;1018759;29;20066;-72
2023/09/04 01:27:00;;;;;;;5.95;4.32;;;;;;;;;;1023132;28;20177;-72
2023/09/04 01:27:31;;;;;;;4.72;4.13;;;;;;;;;;1026351;28;20026;-73
2023/09/04 01:28:12;;;;;;;5.07;4.03;;;;;;;;;;1022778;29;20015;-72
2023/09/04 01:28:42;;;;;;;5.68;3.80;;;;;;;;;;1026590;28;20774;-72
2023/09/04 01:29:26;;;;;;;6.70;4.40;;;;;;;;;;1028239;28;20030;-72
2023/09/04 01:29:58;;;;;;;5.90;4.35;;;;;;;;;;1030137;28;20130;-72
2023/09/04 01:30:33;;;;;;;4.88;4.03;;;;;;;;;;1030648;28;20042;-72
2023/09/04 01:31:27;;;;;;;4.85;3.95;;;;;;;;;;1026593;28;20019;-72
2023/09/04 01:32:00;;;;;;;5.38;4.18;;;;;;;;;;1028980;28;20022;-72
2023/09/04 01:32:32;;;;;;;5.78;4.30;;;;;;;;;;1030712;28;20019;-72
2023/09/04 01:33:02;;;;;;;5.43;4.13;;;;;;;;;;1034547;28;20098;-73
2023/09/04 01:33:34;;;;;;;5.57;4.32;;;;;;;;;;1026605;28;20135;-72
2023/09/04 01:34:14;;;;;;;5.43;4.47;;;;;;;;;;1022733;29;20055;-73
2023/09/04 01:34:45;;;;;;;6.88;4.57;;;;;;;;;;1019182;29;20012;-71
2023/09/04 01:35:15;;;;;;;6.65;4.35;;;;;;;;;;1025559;28;20577;-72
2023/09/04 01:35:45;;;;;;;6.93;4.68;;;;;;;;;;1028298;28;20025;-74
2023/09/04 01:36:16;;;;;;;5.25;4.60;;;;;;;;;;1031225;28;20485;-72
2023/09/04 01:36:46;;;;;;;4.63;3.83;;;;;;;;;;1026873;28;20015;-72
2023/09/04 01:37:17;;;;;;;5.10;4.00;;;;;;;;;;1030905;28;20117;-71
2023/09/04 01:37:47;;;;;;;7.05;4.45;;;;;;;;;;1026824;28;20114;-72
2023/09/04 01:38:17;;;;;;;5.30;4.20;;;;;;;;;;1022996;28;20023;-73
2023/09/04 01:38:47;;;;;;;5.55;4.32;;;;;;;;;;1026892;28;20079;-73
2023/09/04 01:39:18;;;;;;;4.97;4.10;;;;;;;;;;1022561;29;20058;-72
2023/09/04 01:39:48;;;;;;;5.32;3.80;;;;;;;;;;1022239;28;20030;-72
2023/09/04 01:40:18;;;;;;;6.63;4.15;;;;;;;;;;1026487;28;20010;-74
2023/09/04 01:40:50;;;;;;;5.07;4.07;;;;;;;;;;1018751;29;20028;-73
2023/09/04 01:41:20;;;;;;;5.80;4.28;;;;;;;;;;1022723;29;20022;-73
2023/09/04 01:41:50;;;;;;;6.32;4.15;;;;;;;;;;1022965;28;20020;-72
2023/09/04 01:42:21;;;;;;;5.20;4.13;;;;;;;;;;1026998;28;20103;-73
2023/09/04 01:42:51;;;;;;;5.55;4.68;;;;;;;;;;1031045;28;20068;-73
2023/09/04 01:43:21;;;;;;;5.78;4.25;;;;;;;;;;1030853;28;20040;-74
2023/09/04 01:43:52;;;;;;;5.45;3.63;;;;;;;;;;1022707;28;20402;-71
2023/09/04 01:44:22;;;;;;;6.07;4.28;;;;;;;;;;1022599;28;20042;-72
2023/09/04 01:44:52;;;;;;;5.20;4.25;;;;;;;;;;1026786;28;20075;-73
2023/09/04 01:45:22;;;;;;;5.50;4.13;;;;;;;;;;1022449;28;20019;-72
2023/09/04 01:45:53;;;;;;;5.18;4.07;;;;;;;;;;1030687;28;20045;-74
2023/09/04 01:46:23;;;;;;;6.15;4.43;;;;;;;;;;1022694;29;20020;-73
2023/09/04 01:46:53;;;;;;;5.38;4.35;;;;;;;;;;1018890;29;20574;-73
2023/09/04 01:47:23;;;;;;;6.55;4.40;;;;;;;;;;1022588;29;20011;-73
2023/09/04 01:47:54;;;;;;;5.45;3.55;;;;;;;;;;1022791;29;20422;-70
2023/09/04 01:48:24;;;;;;;4.32;3.47;;;;;;;;;;1034963;28;20010;-71
2023/09/04 01:48:54;;;;;;;7.13;4.53;;;;;;;;;;1034757;28;20153;-72
2023/09/04 01:49:24;;;;;;;5.68;3.83;;;;;;;;;;1030239;28;20098;-74
2023/09/04 01:49:55;;;;;;;5.50;3.97;;;;;;;;;;1026095;28;20435;-74
2023/09/04 01:50:25;;;;;;;4.80;3.58;;;;;;;;;;1026436;28;20446;-73
2023/09/04 01:50:55;;;;;;;5.15;4.10;;;;;;;;;;1030566;28;20061;-72
2023/09/04 01:51:26;;;;;;;4.78;3.50;;;;;;;;;;1034489;28;20554;-71
2023/09/04 01:52:00;;;;;;;4.18;3.67;;;;;;;;;;1035002;28;20113;-71
2023/09/04 01:52:30;;;;;;;5.45;3.63;;;;;;;;;;1034767;28;20030;-72
2023/09/04 01:53:00;;;;;;;4.82;3.85;;;;;;;;;;1034872;28;20655;-71
2023/09/04 01:53:30;;;;;;;4.88;3.72;;;;;;;;;;1030720;28;20054;-72
2023/09/04 01:54:01;;;;;;;4.78;3.80;;;;;;;;;;1030400;28;20025;-72
2023/09/04 01:54:31;;;;;;;6.40;3.47;;;;;;;;;;1034641;28;20105;-73
2023/09/04 01:55:01;;;;;;;4.93;3.97;;;;;;;;;;1030609;28;20026;-72
2023/09/04 01:55:31;;;;;;;8.90;4.20;;;;;;;;;;1030840;28;20022;-72
2023/09/04 01:56:02;;;;;;;8.52;4.07;;;;;;;;;;1030673;28;20037;-71
2023/09/04 01:56:32;;;;;;;4.88;3.95;;;;;;;;;;1030888;28;20060;-71
2023/09/04 01:57:06;;;;;;;4.60;3.80;;;;;;;;;;1034789;28;20026;-72
2023/09/04 01:57:36;;;;;;;5.65;4.38;;;;;;;;;;1030639;28;20022;-72
2023/09/04 01:58:06;;;;;;;4.97;3.90;;;;;;;;;;1030549;28;20624;-73
2023/09/04 01:58:36;;;;;;;6.05;4.25;;;;;;;;;;1030867;28;20633;-73
2023/09/04 01:59:07;;;;;;;5.55;4.07;;;;;;;;;;1026789;28;20030;-73
2023/09/04 01:59:37;;;;;;;5.18;3.88;;;;;;;;;;1029292;28;20069;-74
2023/09/04 02:00:09;;;;;;;5.60;4.20;;;;;;;;;;1026439;28;20078;-72
2023/09/04 02:00:39;;;;;;;5.28;4.00;;;;;;;;;;1026849;28;20668;-74
2023/09/04 02:01:09;;;;;;;5.93;4.25;;;;;;;;;;1026766;28;20053;-72
2023/09/04 02:01:39;;;;;;;5.32;3.90;;;;;;;;;;1030834;28;20094;-74
2023/09/04 02:02:10;;;;;;;5.78;3.92;;;;;;;;;;1030575;28;20048;-73
2023/09/04 02:02:40;;;;;;;6.13;3.75;;;;;;;;;;1030850;28;20030;-74
2023/09/04 02:03:10;;;;;;;4.38;3.38;;;;;;;;;;1030745;28;20437;-72
2023/09/04 02:03:42;;;;;;;4.85;3.60;;;;;;;;;;1030757;28;20023;-71
2023/09/04 02:04:13;;;;;;;5.43;4.10;;;;;;;;;;1034755;28;20594;-73
2023/09/04 02:04:43;;;;;;;8.20;3.90;;;;;;;;;;1034678;28;20017;-74
2023/09/04 02:05:13;;;;;;;4.13;3.60;;;;;;;;;;1034706;28;20126;-72
2023/09/04 02:05:44;;;;;;;6.15;4.25;;;;;;;;;;1034718;28;20041;-72
2023/09/04 02:06:14;;;;;;;4.75;3.78;;;;;;;;;;1026464;28;20570;-72
2023/09/04 02:06:44;;;;;;;5.65;4.03;;;;;;;;;;1026723;28;20023;-73
2023/09/04 02:07:14;;;;;;;4.07;3.65;;;;;;;;;;1026739;28;20014;-73
2023/09/04 02:07:45;;;;;;;4.15;3.67;;;;;;;;;;1030486;28;20575;-72
2023/09/04 02:08:15;;;;;;;4.95;3.95;;;;;;;;;;1035034;28;20014;-73
2023/09/04 02:08:45;;;;;;;5.78;4.10;;;;;;;;;;1034858;28;20014;-73
2023/09/04 02:09:16;;;;;;;5.22;4.05;;;;;;;;;;1034808;28;20014;-72
2023/09/04 02:09:46;;;;;;;5.85;4.10;;;;;;;;;;1033684;28;20014;-73
2023/09/04 02:10:16;;;;;;;4.20;3.65;;;;;;;;;;1030613;28;20584;-71
2023/09/04 02:10:49;;;;;;;5.25;4.00;;;;;;;;;;1026699;28;20022;-74
2023/09/04 02:11:19;;;;;;;7.45;4.07;;;;;;;;;;1027001;28;20475;-73
2023/09/04 02:11:49;;;;;;;6.93;4.00;;;;;;;;;;1026878;28;20015;-73
2023/09/04 02:12:20;;;;;;;6.35;3.95;;;;;;;;;;1027068;28;20512;-74
2023/09/04 02:12:50;;;;;;;7.20;3.90;;;;;;;;;;1030665;28;20105;-74
2023/09/04 02:13:20;;;;;;;4.95;3.78;;;;;;;;;;1030670;28;20022;-70
2023/09/04 02:13:51;;;;;;;5.15;3.70;;;;;;;;;;1034990;28;20101;-73
2023/09/04 02:14:21;;;;;;;6.32;4.18;;;;;;;;;;1034815;28;20107;-73
2023/09/04 02:14:52;;;;;;;6.47;3.92;;;;;;;;;;1030576;28;20026;-73
2023/09/04 02:15:22;;;;;;;7.35;4.47;;;;;;;;;;1030810;28;20042;-73
2023/09/04 02:15:52;;;;;;;4.88;3.88;;;;;;;;;;1030901;28;20023;-73
2023/09/04 02:16:22;;;;;;;5.60;4.05;;;;;;;;;;1034522;28;20092;-73
2023/09/04 02:16:53;;;;;;;8.20;4.53;;;;;;;;;;1034737;28;20703;-73
2023/09/04 02:17:23;;;;;;;5.05;3.90;;;;;;;;;;1030425;28;20144;-72
2023/09/04 02:17:53;;;;;;;5.00;3.72;;;;;;;;;;1030594;28;20057;-73
2023/09/04 02:18:24;;;;;;;5.20;4.40;;;;;;;;;;1026596;28;20470;-73
2023/09/04 02:18:55;;;;;;;7.07;3.83;;;;;;;;;;1030661;28;20021;-73
2023/09/04 02:19:25;;;;;;;6.95;4.07;;;;;;;;;;1034383;28;20010;-73
2023/09/04 02:19:59;;;;;;;6.22;3.92;;;;;;;;;;1034034;28;20010;-73
2023/09/04 02:20:29;;;;;;;5.20;4.03;;;;;;;;;;1035022;28;20045;-73
2023/09/04 02:21:00;;;;;;;5.47;4.07;;;;;;;;;;1026555;28;20119;-73
2023/09/04 02:21:30;;;;;;;6.53;4.50;;;;;;;;;;1022459;28;20038;-71
2023/09/04 02:22:00;;;;;;;4.80;4.10;;;;;;;;;;1018835;29;20019;-73
2023/09/04 02:22:31;;;;;;;5.13;3.90;;;;;;;;;;1026274;28;20054;-72
2023/09/04 02:23:01;;;;;;;6.50;4.55;;;;;;;;;;1018854;29;20036;-72
2023/09/04 02:23:32;;;;;;;5.20;4.00;;;;;;;;;;1017271;29;20020;-72
2023/09/04 02:24:02;;;;;;;4.28;3.58;;;;;;;;;;1026944;28;20068;-71
2023/09/04 02:24:33;;;;;;;5.00;4.05;;;;;;;;;;1023615;28;20577;-72
2023/09/04 02:25:04;;;;;;;7.13;4.55;;;;;;;;;;1015112;29;20490;-74
2023/09/04 02:25:34;;;;;;;4.75;3.83;;;;;;;;;;1018978;29;20418;-72
2023/09/04 02:26:04;;;;;;;4.85;3.90;;;;;;;;;;1015114;29;20012;-73
2023/09/04 02:26:35;;;;;;;6.10;3.95;;;;;;;;;;1019015;29;20035;-72
2023/09/04 02:27:05;;;;;;;6.95;3.90;;;;;;;;;;1023011;28;20026;-72
2023/09/04 02:27:35;;;;;;;6.88;3.92;;;;;;;;;;1019374;29;20023;-73
2023/09/04 02:28:06;;;;;;;5.55;4.18;;;;;;;;;;1015201;29;20032;-73
2023/09/04 02:28:36;;;;;;;6.30;4.60;;;;;;;;;;1019145;29;20047;-73
2023/09/04 02:29:06;;;;;;;6.32;3.92;;;;;;;;;;1018906;29;20031;-72
2023/09/04 02:29:37;;;;;;;5.45;3.67;;;;;;;;;;1022496;28;20686;-72
2023/09/04 02:30:08;;;;;;;5.80;4.15;;;;;;;;;;1019144;29;20023;-70
2023/09/04 02:30:38;;;;;;;5.72;4.13;;;;;;;;;;1023259;29;20014;-71
2023/09/04 02:31:11;;;;;;;6.60;4.53;;;;;;;;;;1023122;29;20038;-72
2023/09/04 02:31:42;;;;;;;5.30;4.25;;;;;;;;;;1024201;28;20070;-72
2023/09/04 02:32:13;;;;;;;4.45;3.55;;;;;;;;;;1023447;28;20023;-72
2023/09/04 02:32:43;;;;;;;5.00;4.50;;;;;;;;;;1019275;29;20123;-73
2023/09/04 02:33:14;;;;;;;6.47;4.03;;;;;;;;;;1019150;29;20028;-74
2023/09/04 02:33:44;;;;;;;6.10;4.05;;;;;;;;;;1019264;29;20498;-73
2023/09/04 02:34:14;;;;;;;6.55;4.60;;;;;;;;;;1023064;29;20463;-72
2023/09/04 02:34:45;;;;;;;4.93;3.42;;;;;;;;;;1027477;28;20031;-73
2023/09/04 02:35:15;;;;;;;6.78;3.90;;;;;;;;;;1023071;28;20147;-74
2023/09/04 02:35:46;;;;;;;5.15;3.97;;;;;;;;;;1015552;29;20020;-74
2023/09/04 02:36:16;;;;;;;5.63;4.13;;;;;;;;;;1015379;29;20052;-73
2023/09/04 02:36:46;;;;;;;5.88;4.10;;;;;;;;;;1015188;29;20016;-73
2023/09/04 02:37:17;;;;;;;6.15;4.45;;;;;;;;;;1019382;29;20047;-71
2023/09/04 02:37:47;;;;;;;6.75;4.10;;;;;;;;;;1019247;29;20070;-73
2023/09/04 02:38:19;;;;;;;5.03;3.85;;;;;;;;;;1019258;29;20095;-71
2023/09/04 02:38:49;;;;;;;6.00;4.40;;;;;;;;;;1015324;29;20047;-71
2023/09/04 02:39:19;;;;;;;6.32;4.13;;;;;;;;;;1019394;29;20031;-72
2023/09/04 02:39:50;;;;;;;4.88;3.88;;;;;;;;;;1018570;29;20028;-72
2023/09/04 02:40:20;;;;;;;5.97;4.38;;;;;;;;;;1024569;28;20081;-73
2023/09/04 02:40:50;;;;;;;6.10;4.32;;;;;;;;;;1015674;29;20514;-72
2023/09/04 02:41:21;;;;;;;5.68;4.28;;;;;;;;;;1015492;29;20416;-70
2023/09/04 02:41:51;;;;;;;5.28;4.25;;;;;;;;;;1020245;29;20126;-73
2023/09/04 02:42:21;;;;;;;5.43;4.30;;;;;;;;;;1019681;29;20038;-72
2023/09/04 02:42:52;;;;;;;7.78;4.72;;;;;;;;;;1019451;29;20008;-72
2023/09/04 02:43:22;;;;;;;5.15;4.13;;;;;;;;;;1023881;28;20386;-73
2023/09/04 02:43:53;;;;;;;6.07;4.00;;;;;;;;;;1020049;29;20054;-73
2023/09/04 02:44:23;;;;;;;5.57;4.38;;;;;;;;;;1022277;29;20019;-72
2023/09/04 02:44:54;;;;;;;6.15;4.43;;;;;;;;;;1024435;29;20026;-71
2023/09/04 02:45:24;;;;;;;5.38;4.10;;;;;;;;;;1018405;29;20539;-72
2023/09/04 02:45:57;;;;;;;8.18;4.80;;;;;;;;;;1028253;28;20023;-73
2023/09/04 02:46:32;;;;;;;5.43;4.57;;;;;;;;;;1024271;29;20016;-73
2023/09/04 02:47:02;;;;;;;5.90;4.70;;;;;;;;;;1025921;28;20019;-71
2023/09/04 02:47:32;;;;;;;5.30;4.00;;;;;;;;;;1028238;28;20019;-73
2023/09/04 02:48:03;;;;;;;8.82;5.18;;;;;;;;;;1024113;29;20015;-73
2023/09/04 02:48:33;;;;;;;7.22;4.70;;;;;;;;;;1016410;29;20129;-71
2023/09/04 02:49:03;;;;;;;8.13;4.72;;;;;;;;;;1016346;29;20107;-71
2023/09/04 02:49:34;;;;;;;6.55;4.85;;;;;;;;;;1019692;29;20480;-74
2023/09/04 02:50:05;;;;;;;6.55;4.60;;;;;;;;;;1016134;29;20391;-73
2023/09/04 02:50:35;;;;;;;6.07;4.68;;;;;;;;;;1020136;29;20008;-71
2023/09/04 02:51:07;;;;;;;6.35;4.60;;;;;;;;;;1024264;29;20011;-72
2023/09/04 02:51:37;;;;;;;4.95;3.72;;;;;;;;;;1016409;29;20488;-71
2023/09/04 02:52:08;;;;;;;6.05;4.78;;;;;;;;;;1025206;28;20015;-71
2023/09/04 02:52:38;;;;;;;11.13;4.38;;;;;;;;;;1020030;29;20023;-73
2023/09/04 02:53:08;;;;;;;5.97;4.72;;;;;;;;;;1023904;29;20066;-72
2023/09/04 02:53:39;;;;;;;6.43;5.15;;;;;;;;;;1027953;28;20019;-72
2023/09/04 02:54:09;;;;;;;6.10;4.70;;;;;;;;;;1020085;28;20028;-72
2023/09/04 02:54:40;;;;;;;5.45;4.57;;;;;;;;;;1016429;29;20023;-72
2023/09/04 02:55:12;;;;;;;6.75;4.70;;;;;;;;;;1020290;29;20594;-72
2023/09/04 02:55:48;;;;;;;6.50;5.05;;;;;;;;;;1023989;28;20016;-70
2023/09/04 02:56:18;;;;;;;6.85;4.70;;;;;;;;;;1024020;28;20019;-72
2023/09/04 02:56:48;;;;;;;6.25;4.82;;;;;;;;;;1020127;29;20032;-74
2023/09/04 02:57:19;;;;;;;8.13;4.78;;;;;;;;;;1022108;28;20540;-74
2023/09/04 02:57:49;;;;;;;6.72;4.75;;;;;;;;;;1022393;29;20047;-69
2023/09/04 02:58:20;;;;;;;6.53;4.65;;;;;;;;;;1025086;29;20020;-72
2023/09/04 02:58:50;;;;;;;6.57;5.00;;;;;;;;;;1024773;28;20026;-72
2023/09/04 02:59:20;;;;;;;4.80;4.03;;;;;;;;;;1024305;28;20106;-75
2023/09/04 02:59:50;;;;;;;5.72;4.50;;;;;;;;;;1031644;28;20042;-73
2023/09/04 03:00:21;;;;;;;6.43;4.97;;;;;;;;;;1028130;28;20420;-72
2023/09/04 03:00:51;;;;;;;5.57;4.57;;;;;;;;;;1028289;28;20568;-72
2023/09/04 03:01:21;;;;;;;6.05;4.72;;;;;;;;;;1032019;28;20021;-72
2023/09/04 03:01:52;;;;;;;5.57;4.50;;;;;;;;;;1024325;28;20023;-71
2023/09/04 03:02:22;;;;;;;6.22;4.97;;;;;;;;;;1024117;29;20374;-74
2023/09/04 03:02:52;;;;;;;7.03;5.18;;;;;;;;;;1024336;28;20409;-75
2023/09/04 03:03:23;;;;;;;6.75;4.68;;;;;;;;;;1024401;28;20046;-72
2023/09/04 03:03:53;;;;;;;5.45;4.57;;;;;;;;;;1032269;28;20448;-72
2023/09/04 03:04:23;;;;;;;7.50;4.95;;;;;;;;;;1035951;28;20076;-72
2023/09/04 03:04:54;;;;;;;6.78;5.03;;;;;;;;;;1032130;28;20053;-72